sensor_id;sensor_type;location;lat;lon;timestamp;pressure;altitude;pressure_sealevel;temperature;humidity
19594;BME280;9944;48.240;16.478;2023-05-19T00:03:30;100493.88;;;10.12;74.42
19594;BME280;9944;48.240;16.478;2023-05-19T00:07:36;100485.94;;;10.13;74.56
19594;BME280;9944;48.240;16.478;2023-05-19T00:11:40;100491.25;;;10.12;74.25
19594;BME280;9944;48.240;16.478;2023-05-19T00:15:44;100479.78;;;10.13;74.18
19594;BME280;9944;48.240;16.478;2023-05-19T00:19:48;100485.97;;;10.12;74.47
19594;BME280;9944;48.240;16.478;2023-05-19T00:23:53;100474.47;;;10.10;74.78
19594;BME280;9944;48.240;16.478;2023-05-19T00:27:56;100481.50;;;10.08;74.65
19594;BME280;9944;48.240;16.478;2023-05-19T00:32:00;100473.56;;;10.04;74.64
19594;BME280;9944;48.240;16.478;2023-05-19T00:36:05;100474.44;;;10.03;74.80
19594;BME280;9944;48.240;16.478;2023-05-19T00:40:09;100476.19;;;10.04;74.78
19594;BME280;9944;48.240;16.478;2023-05-19T00:44:12;100470.91;;;10.03;74.69
19594;BME280;9944;48.240;16.478;2023-05-19T00:48:15;100465.63;;;10.01;74.96
19594;BME280;9944;48.240;16.478;2023-05-19T00:52:20;100463.00;;;10.01;75.04
19594;BME280;9944;48.240;16.478;2023-05-19T00:56:23;100470.88;;;9.98;75.00
19594;BME280;9944;48.240;16.478;2023-05-19T01:00:27;100463.78;;;9.94;74.96
19594;BME280;9944;48.240;16.478;2023-05-19T01:04:32;100465.53;;;9.92;75.10
19594;BME280;9944;48.240;16.478;2023-05-19T01:08:37;100461.97;;;9.90;75.18
19594;BME280;9944;48.240;16.478;2023-05-19T01:12:40;100458.50;;;9.91;75.34
19594;BME280;9944;48.240;16.478;2023-05-19T01:16:47;100460.22;;;9.89;75.17
19594;BME280;9944;48.240;16.478;2023-05-19T01:21:00;100462.81;;;9.86;75.08
19594;BME280;9944;48.240;16.478;2023-05-19T01:25:43;100466.28;;;9.82;75.07
19594;BME280;9944;48.240;16.478;2023-05-19T01:34:25;100448.69;;;9.79;75.34
19594;BME280;9944;48.240;16.478;2023-05-19T01:38:29;100449.56;;;9.80;75.41
19594;BME280;9944;48.240;16.478;2023-05-19T01:42:32;100452.16;;;9.78;75.57
19594;BME280;9944;48.240;16.478;2023-05-19T01:46:40;100455.69;;;9.77;75.49
19594;BME280;9944;48.240;16.478;2023-05-19T01:50:44;100451.28;;;9.76;75.66
19594;BME280;9944;48.240;16.478;2023-05-19T01:54:47;100447.78;;;9.77;75.79
19594;BME280;9944;48.240;16.478;2023-05-19T01:58:58;100441.63;;;9.75;75.75
19594;BME280;9944;48.240;16.478;2023-05-19T02:03:14;100444.25;;;9.74;75.91
19594;BME280;9944;48.240;16.478;2023-05-19T02:07:28;100453.88;;;9.73;76.09
19594;BME280;9944;48.240;16.478;2023-05-19T02:11:37;100448.59;;;9.70;75.79
19594;BME280;9944;48.240;16.478;2023-05-19T02:15:42;100442.41;;;9.69;76.02
19594;BME280;9944;48.240;16.478;2023-05-19T02:19:49;100444.16;;;9.67;75.79
19594;BME280;9944;48.240;16.478;2023-05-19T02:23:52;100447.66;;;9.66;76.16
19594;BME280;9944;48.240;16.478;2023-05-19T02:27:57;100449.44;;;9.67;76.03
19594;BME280;9944;48.240;16.478;2023-05-19T02:32:04;100439.75;;;9.63;76.10
19594;BME280;9944;48.240;16.478;2023-05-19T02:36:09;100448.47;;;9.61;76.06
19594;BME280;9944;48.240;16.478;2023-05-19T02:40:12;100438.81;;;9.60;76.54
19594;BME280;9944;48.240;16.478;2023-05-19T02:44:15;100431.78;;;9.60;76.23
19594;BME280;9944;48.240;16.478;2023-05-19T02:48:18;100429.09;;;9.56;75.90
19594;BME280;9944;48.240;16.478;2023-05-19T02:52:22;100436.97;;;9.51;75.93
19594;BME280;9944;48.240;16.478;2023-05-19T02:56:25;100424.59;;;9.47;75.93
19594;BME280;9944;48.240;16.478;2023-05-19T03:00:29;100433.38;;;9.43;76.05
19594;BME280;9944;48.240;16.478;2023-05-19T03:04:33;100441.28;;;9.43;76.20
19594;BME280;9944;48.240;16.478;2023-05-19T03:08:44;100445.66;;;9.44;76.05
19594;BME280;9944;48.240;16.478;2023-05-19T03:12:47;100443.03;;;9.44;76.23
19594;BME280;9944;48.240;16.478;2023-05-19T03:16:50;100448.31;;;9.45;75.91
19594;BME280;9944;48.240;16.478;2023-05-19T03:20:53;100443.91;;;9.43;75.78
19594;BME280;9944;48.240;16.478;2023-05-19T03:24:58;100449.13;;;9.40;76.17
19594;BME280;9944;48.240;16.478;2023-05-19T03:29:01;100457.03;;;9.40;76.29
19594;BME280;9944;48.240;16.478;2023-05-19T03:33:08;100451.78;;;9.41;76.57
19594;BME280;9944;48.240;16.478;2023-05-19T03:37:12;100455.28;;;9.42;76.63
19594;BME280;9944;48.240;16.478;2023-05-19T03:41:17;100455.31;;;9.43;76.76
19594;BME280;9944;48.240;16.478;2023-05-19T03:45:20;100452.75;;;9.48;76.51
19594;BME280;9944;48.240;16.478;2023-05-19T03:49:25;100458.91;;;9.50;76.64
19594;BME280;9944;48.240;16.478;2023-05-19T03:53:38;100456.28;;;9.50;76.07
19594;BME280;9944;48.240;16.478;2023-05-19T03:57:43;100461.56;;;9.50;76.18
19594;BME280;9944;48.240;16.478;2023-05-19T04:01:46;100457.13;;;9.49;75.91
19594;BME280;9944;48.240;16.478;2023-05-19T04:05:49;100455.41;;;9.49;75.86
19594;BME280;9944;48.240;16.478;2023-05-19T04:09:52;100463.28;;;9.48;75.73
19594;BME280;9944;48.240;16.478;2023-05-19T04:13:57;100468.59;;;9.51;75.73
19594;BME280;9944;48.240;16.478;2023-05-19T04:18:00;100464.22;;;9.53;75.51
19594;BME280;9944;48.240;16.478;2023-05-19T04:22:03;100468.59;;;9.54;75.28
19594;BME280;9944;48.240;16.478;2023-05-19T04:26:06;100458.97;;;9.58;75.17
19594;BME280;9944;48.240;16.478;2023-05-19T04:30:12;100457.28;;;9.61;75.40
19594;BME280;9944;48.240;16.478;2023-05-19T04:34:19;100465.22;;;9.64;74.95
19594;BME280;9944;48.240;16.478;2023-05-19T04:38:23;100466.13;;;9.68;74.99
19594;BME280;9944;48.240;16.478;2023-05-19T04:42:26;100464.44;;;9.73;75.21
19594;BME280;9944;48.240;16.478;2023-05-19T04:46:35;100465.34;;;9.77;74.90
19594;BME280;9944;48.240;16.478;2023-05-19T04:50:39;100460.97;;;9.80;74.94
19594;BME280;9944;48.240;16.478;2023-05-19T04:54:43;100467.19;;;9.84;74.55
19594;BME280;9944;48.240;16.478;2023-05-19T04:58:47;100467.19;;;9.87;74.26
19594;BME280;9944;48.240;16.478;2023-05-19T05:02:52;100466.34;;;9.88;73.99
19594;BME280;9944;48.240;16.478;2023-05-19T05:07:00;100467.19;;;9.87;73.97
19594;BME280;9944;48.240;16.478;2023-05-19T05:11:04;100464.69;;;9.93;74.31
19594;BME280;9944;48.240;16.478;2023-05-19T05:15:09;100472.63;;;9.96;73.17
19594;BME280;9944;48.240;16.478;2023-05-19T05:19:15;100477.91;;;9.99;73.29
19594;BME280;9944;48.240;16.478;2023-05-19T05:23:18;100471.88;;;10.13;73.28
19594;BME280;9944;48.240;16.478;2023-05-19T05:27:22;100471.06;;;10.20;73.13
19594;BME280;9944;48.240;16.478;2023-05-19T05:31:27;100477.34;;;10.31;73.21
19594;BME280;9944;48.240;16.478;2023-05-19T05:35:32;100470.34;;;10.38;73.07
19594;BME280;9944;48.240;16.478;2023-05-19T05:39:35;100473.13;;;10.58;73.25
19594;BME280;9944;48.240;16.478;2023-05-19T05:43:38;100473.28;;;10.79;72.73
19594;BME280;9944;48.240;16.478;2023-05-19T05:47:42;100482.19;;;11.03;72.15
19594;BME280;9944;48.240;16.478;2023-05-19T05:51:49;100476.13;;;11.19;71.17
19594;BME280;9944;48.240;16.478;2023-05-19T05:56:10;100471.75;;;11.23;70.87
19594;BME280;9944;48.240;16.478;2023-05-19T06:00:23;100481.44;;;11.26;71.01
19594;BME280;9944;48.240;16.478;2023-05-19T06:04:28;100468.31;;;11.41;70.92
19594;BME280;9944;48.240;16.478;2023-05-19T06:08:33;100475.38;;;11.48;70.12
19594;BME280;9944;48.240;16.478;2023-05-19T06:12:37;100479.00;;;11.63;70.37
19594;BME280;9944;48.240;16.478;2023-05-19T06:16:41;100480.75;;;11.73;69.98
19594;BME280;9944;48.240;16.478;2023-05-19T06:20:45;100477.25;;;11.86;69.95
19594;BME280;9944;48.240;16.478;2023-05-19T06:24:49;100477.28;;;12.03;69.91
19594;BME280;9944;48.240;16.478;2023-05-19T06:28:53;100482.63;;;12.20;69.91
19594;BME280;9944;48.240;16.478;2023-05-19T06:32:57;100479.06;;;12.34;69.41
19594;BME280;9944;48.240;16.478;2023-05-19T06:37:01;100479.06;;;12.34;68.96
19594;BME280;9944;48.240;16.478;2023-05-19T06:41:07;100482.63;;;12.36;68.32
19594;BME280;9944;48.240;16.478;2023-05-19T06:45:10;100487.03;;;12.43;68.44
19594;BME280;9944;48.240;16.478;2023-05-19T06:49:13;100482.59;;;12.51;68.34
19594;BME280;9944;48.240;16.478;2023-05-19T06:53:19;100485.25;;;12.56;67.39
19594;BME280;9944;48.240;16.478;2023-05-19T06:57:24;100489.69;;;12.44;67.33
19594;BME280;9944;48.240;16.478;2023-05-19T07:01:28;100494.97;;;12.43;67.67
19594;BME280;9944;48.240;16.478;2023-05-19T07:05:32;100487.91;;;12.45;67.80
19594;BME280;9944;48.240;16.478;2023-05-19T07:09:36;100486.13;;;12.56;68.07
19594;BME280;9944;48.240;16.478;2023-05-19T07:13:41;100498.53;;;12.63;67.93
19594;BME280;9944;48.240;16.478;2023-05-19T07:17:45;100517.06;;;12.71;67.98
19594;BME280;9944;48.240;16.478;2023-05-19T07:21:48;100509.97;;;12.75;67.76
19594;BME280;9944;48.240;16.478;2023-05-19T07:25:53;100509.09;;;12.76;67.42
19594;BME280;9944;48.240;16.478;2023-05-19T07:29:58;100502.03;;;12.81;67.90
19594;BME280;9944;48.240;16.478;2023-05-19T07:34:01;100491.38;;;12.96;67.64
19594;BME280;9944;48.240;16.478;2023-05-19T07:38:04;100479.91;;;12.96;67.16
19594;BME280;9944;48.240;16.478;2023-05-19T07:42:08;100472.88;;;12.90;67.32
19594;BME280;9944;48.240;16.478;2023-05-19T07:46:12;100466.66;;;12.91;67.71
19594;BME280;9944;48.240;16.478;2023-05-19T07:50:15;100476.34;;;13.01;67.82
19594;BME280;9944;48.240;16.478;2023-05-19T07:54:19;100489.56;;;13.17;67.99
19594;BME280;9944;48.240;16.478;2023-05-19T07:58:22;100493.03;;;13.33;68.12
19594;BME280;9944;48.240;16.478;2023-05-19T08:02:26;100505.38;;;13.44;67.66
19594;BME280;9944;48.240;16.478;2023-05-19T08:06:29;100515.09;;;13.50;67.37
19594;BME280;9944;48.240;16.478;2023-05-19T08:10:33;100500.00;;;13.60;67.45
19594;BME280;9944;48.240;16.478;2023-05-19T08:14:36;100501.72;;;13.70;67.36
19594;BME280;9944;48.240;16.478;2023-05-19T08:18:40;100496.38;;;13.79;67.14
19594;BME280;9944;48.240;16.478;2023-05-19T08:22:44;100501.69;;;13.86;66.86
19594;BME280;9944;48.240;16.478;2023-05-19T08:26:47;100492.78;;;13.93;66.43
19594;BME280;9944;48.240;16.478;2023-05-19T08:30:50;100484.81;;;13.94;66.42
19594;BME280;9944;48.240;16.478;2023-05-19T08:34:55;100482.13;;;13.99;66.67
19594;BME280;9944;48.240;16.478;2023-05-19T08:38:58;100487.41;;;14.02;66.69
19594;BME280;9944;48.240;16.478;2023-05-19T08:43:01;100482.94;;;14.09;66.53
19594;BME280;9944;48.240;16.478;2023-05-19T08:47:04;100482.13;;;14.00;66.40
19594;BME280;9944;48.240;16.478;2023-05-19T08:51:19;100469.66;;;14.07;66.96
19594;BME280;9944;48.240;16.478;2023-05-19T08:55:30;100479.38;;;14.11;66.78
19594;BME280;9944;48.240;16.478;2023-05-19T08:59:36;100476.69;;;14.16;66.73
19594;BME280;9944;48.240;16.478;2023-05-19T09:03:39;100471.34;;;14.21;66.36
19594;BME280;9944;48.240;16.478;2023-05-19T09:07:46;100466.03;;;14.21;66.36
19594;BME280;9944;48.240;16.478;2023-05-19T09:11:50;100465.94;;;14.33;66.57
19594;BME280;9944;48.240;16.478;2023-05-19T09:15:55;100472.03;;;14.46;66.71
19594;BME280;9944;48.240;16.478;2023-05-19T09:20:00;100461.22;;;14.63;66.55
19594;BME280;9944;48.240;16.478;2023-05-19T09:24:05;100462.03;;;14.74;66.46
19594;BME280;9944;48.240;16.478;2023-05-19T09:28:09;100449.50;;;14.87;65.79
19594;BME280;9944;48.240;16.478;2023-05-19T09:32:23;100445.84;;;14.96;65.33
19594;BME280;9944;48.240;16.478;2023-05-19T09:36:28;100443.97;;;15.07;65.53
19594;BME280;9944;48.240;16.478;2023-05-19T09:40:33;100447.44;;;15.13;65.22
19594;BME280;9944;48.240;16.478;2023-05-19T09:44:36;100443.81;;;15.21;65.35
19594;BME280;9944;48.240;16.478;2023-05-19T09:48:39;100437.47;;;15.31;64.72
19594;BME280;9944;48.240;16.478;2023-05-19T09:52:43;100434.47;;;15.56;65.03
19594;BME280;9944;48.240;16.478;2023-05-19T09:56:55;100428.91;;;15.73;65.09
19594;BME280;9944;48.240;16.478;2023-05-19T10:01:00;100429.47;;;15.95;64.88
19594;BME280;9944;48.240;16.478;2023-05-19T10:05:04;100415.84;;;16.15;64.02
19594;BME280;9944;48.240;16.478;2023-05-19T10:09:07;100411.00;;;16.38;63.54
19594;BME280;9944;48.240;16.478;2023-05-19T10:13:12;100418.66;;;16.57;63.00
19594;BME280;9944;48.240;16.478;2023-05-19T10:17:15;100425.50;;;16.72;63.08
19594;BME280;9944;48.240;16.478;2023-05-19T10:21:19;100414.91;;;16.67;61.95
19594;BME280;9944;48.240;16.478;2023-05-19T10:25:22;100418.56;;;16.63;62.37
19594;BME280;9944;48.240;16.478;2023-05-19T10:29:28;100413.22;;;16.63;62.53
19594;BME280;9944;48.240;16.478;2023-05-19T10:37:58;100396.75;;;16.89;61.90
19594;BME280;9944;48.240;16.478;2023-05-19T10:42:11;100394.75;;;16.99;62.44
19594;BME280;9944;48.240;16.478;2023-05-19T10:46:17;100395.66;;;16.99;62.35
19594;BME280;9944;48.240;16.478;2023-05-19T10:50:20;100395.75;;;16.95;61.80
19594;BME280;9944;48.240;16.478;2023-05-19T10:54:39;100393.31;;;16.83;61.61
19594;BME280;9944;48.240;16.478;2023-05-19T10:58:49;100398.78;;;16.75;61.98
19594;BME280;9944;48.240;16.478;2023-05-19T11:03:11;100401.31;;;16.83;62.23
19594;BME280;9944;48.240;16.478;2023-05-19T11:07:16;100399.09;;;17.05;62.33
19594;BME280;9944;48.240;16.478;2023-05-19T11:11:20;100390.53;;;17.31;62.09
19594;BME280;9944;48.240;16.478;2023-05-19T11:15:25;100379.38;;;17.52;61.66
19594;BME280;9944;48.240;16.478;2023-05-19T11:19:31;100385.13;;;17.73;60.24
19594;BME280;9944;48.240;16.478;2023-05-19T11:23:37;100372.97;;;17.60;60.96
19594;BME280;9944;48.240;16.478;2023-05-19T11:27:40;100375.56;;;17.63;61.28
19594;BME280;9944;48.240;16.478;2023-05-19T11:31:44;100375.72;;;17.56;61.26
19594;BME280;9944;48.240;16.478;2023-05-19T11:35:49;100384.59;;;17.59;61.24
19594;BME280;9944;48.240;16.478;2023-05-19T11:39:52;100371.75;;;17.76;61.01
19594;BME280;9944;48.240;16.478;2023-05-19T11:43:55;100372.03;;;18.00;61.30
19594;BME280;9944;48.240;16.478;2023-05-19T11:47:59;100364.66;;;18.09;60.54
19594;BME280;9944;48.240;16.478;2023-05-19T11:52:05;100365.63;;;18.07;61.00
19594;BME280;9944;48.240;16.478;2023-05-19T11:56:10;100354.94;;;18.07;60.84
19594;BME280;9944;48.240;16.478;2023-05-19T12:00:14;100361.13;;;18.09;61.17
19594;BME280;9944;48.240;16.478;2023-05-19T12:04:18;100361.28;;;18.03;61.09
19594;BME280;9944;48.240;16.478;2023-05-19T12:08:23;100364.16;;;17.95;61.27
19594;BME280;9944;48.240;16.478;2023-05-19T12:12:28;100366.84;;;17.93;61.38
19594;BME280;9944;48.240;16.478;2023-05-19T12:16:32;100369.53;;;17.93;62.01
19594;BME280;9944;48.240;16.478;2023-05-19T12:20:36;100351.66;;;17.96;61.23
19594;BME280;9944;48.240;16.478;2023-05-19T12:24:42;100354.34;;;17.96;60.91
19594;BME280;9944;48.240;16.478;2023-05-19T12:28:45;100352.63;;;17.93;61.07
19594;BME280;9944;48.240;16.478;2023-05-19T12:32:48;100353.50;;;17.93;61.19
19594;BME280;9944;48.240;16.478;2023-05-19T12:36:52;100349.91;;;17.94;61.37
19594;BME280;9944;48.240;16.478;2023-05-19T12:40:58;100346.22;;;18.00;61.08
19594;BME280;9944;48.240;16.478;2023-05-19T12:45:03;100337.25;;;18.01;60.99
19594;BME280;9944;48.240;16.478;2023-05-19T12:49:06;100344.25;;;18.07;60.87
19594;BME280;9944;48.240;16.478;2023-05-19T12:53:10;100343.28;;;18.09;61.37
19594;BME280;9944;48.240;16.478;2023-05-19T12:57:16;100338.75;;;18.13;61.23
19594;BME280;9944;48.240;16.478;2023-05-19T13:01:21;100329.06;;;18.09;60.91
19594;BME280;9944;48.240;16.478;2023-05-19T13:05:25;100331.56;;;18.15;61.78
19594;BME280;9944;48.240;16.478;2023-05-19T13:09:29;100329.72;;;18.17;60.76
19594;BME280;9944;48.240;16.478;2023-05-19T13:13:37;100326.13;;;18.18;61.12
19594;BME280;9944;48.240;16.478;2023-05-19T13:17:40;100339.50;;;18.18;61.29
19594;BME280;9944;48.240;16.478;2023-05-19T13:21:43;100328.66;;;18.24;61.10
19594;BME280;9944;48.240;16.478;2023-05-19T13:25:48;100331.22;;;18.27;61.09
19594;BME280;9944;48.240;16.478;2023-05-19T13:29:53;100325.94;;;18.26;61.00
19594;BME280;9944;48.240;16.478;2023-05-19T13:33:56;100311.34;;;18.38;61.01
19594;BME280;9944;48.240;16.478;2023-05-19T13:37:59;100305.84;;;18.44;60.97
19594;BME280;9944;48.240;16.478;2023-05-19T13:42:05;100302.16;;;18.48;60.86
19594;BME280;9944;48.240;16.478;2023-05-19T13:46:10;100304.78;;;18.49;61.28
19594;BME280;9944;48.240;16.478;2023-05-19T13:50:13;100298.56;;;18.49;61.22
19594;BME280;9944;48.240;16.478;2023-05-19T13:54:16;100289.88;;;18.41;61.03
19594;BME280;9944;48.240;16.478;2023-05-19T13:58:19;100287.28;;;18.38;61.10
19594;BME280;9944;48.240;16.478;2023-05-19T14:02:24;100285.56;;;18.37;61.63
19594;BME280;9944;48.240;16.478;2023-05-19T14:06:27;100280.00;;;18.43;61.00
19594;BME280;9944;48.240;16.478;2023-05-19T14:10:31;100278.13;;;18.46;61.34
19594;BME280;9944;48.240;16.478;2023-05-19T14:14:34;100275.34;;;18.51;61.33
19594;BME280;9944;48.240;16.478;2023-05-19T14:18:39;100278.03;;;18.49;60.93
19594;BME280;9944;48.240;16.478;2023-05-19T14:22:42;100274.63;;;18.44;61.11
19594;BME280;9944;48.240;16.478;2023-05-19T14:26:45;100272.09;;;18.40;60.67
19594;BME280;9944;48.240;16.478;2023-05-19T14:30:48;100267.72;;;18.37;60.82
19594;BME280;9944;48.240;16.478;2023-05-19T14:34:53;100264.22;;;18.35;60.65
19594;BME280;9944;48.240;16.478;2023-05-19T14:38:56;100271.28;;;18.36;59.96
19594;BME280;9944;48.240;16.478;2023-05-19T14:42:59;100265.25;;;18.29;59.97
19594;BME280;9944;48.240;16.478;2023-05-19T14:47:02;100264.38;;;18.29;60.09
19594;BME280;9944;48.240;16.478;2023-05-19T14:51:09;100267.94;;;18.29;60.38
19594;BME280;9944;48.240;16.478;2023-05-19T14:55:12;100266.88;;;18.35;60.12
19594;BME280;9944;48.240;16.478;2023-05-19T14:59:15;100263.16;;;18.41;59.89
19594;BME280;9944;48.240;16.478;2023-05-19T15:03:18;100271.13;;;18.42;60.11
19594;BME280;9944;48.240;16.478;2023-05-19T15:07:25;100270.16;;;18.45;60.27
19594;BME280;9944;48.240;16.478;2023-05-19T15:11:28;100265.75;;;18.44;59.95
19594;BME280;9944;48.240;16.478;2023-05-19T15:15:31;100260.59;;;18.36;59.71
19594;BME280;9944;48.240;16.478;2023-05-19T15:19:35;100260.81;;;18.28;60.14
19594;BME280;9944;48.240;16.478;2023-05-19T15:23:40;100266.13;;;18.30;60.57
19594;BME280;9944;48.240;16.478;2023-05-19T15:27:43;100265.25;;;18.29;60.56
19594;BME280;9944;48.240;16.478;2023-05-19T15:31:48;100267.78;;;18.34;61.04
19594;BME280;9944;48.240;16.478;2023-05-19T15:35:51;100266.00;;;18.35;61.21
19594;BME280;9944;48.240;16.478;2023-05-19T15:39:56;100267.03;;;18.29;61.19
19594;BME280;9944;48.240;16.478;2023-05-19T15:43:59;100277.03;;;18.22;61.23
19594;BME280;9944;48.240;16.478;2023-05-19T15:48:03;100273.56;;;18.19;61.25
19594;BME280;9944;48.240;16.478;2023-05-19T15:52:06;100255.88;;;18.15;61.55
19594;BME280;9944;48.240;16.478;2023-05-19T15:56:11;100256.72;;;18.15;61.65
19594;BME280;9944;48.240;16.478;2023-05-19T16:00:15;100249.69;;;18.12;61.67
19594;BME280;9944;48.240;16.478;2023-05-19T16:04:18;100251.44;;;18.13;61.65
19594;BME280;9944;48.240;16.478;2023-05-19T16:08:21;100249.66;;;18.14;61.80
19594;BME280;9944;48.240;16.478;2023-05-19T16:12:26;100249.63;;;18.16;61.85
19594;BME280;9944;48.240;16.478;2023-05-19T16:16:30;100253.13;;;18.18;62.10
19594;BME280;9944;48.240;16.478;2023-05-19T16:20:33;100248.75;;;18.13;62.02
19594;BME280;9944;48.240;16.478;2023-05-19T16:24:36;100261.16;;;18.16;62.28
19594;BME280;9944;48.240;16.478;2023-05-19T16:28:40;100265.69;;;18.14;62.39
19594;BME280;9944;48.240;16.478;2023-05-19T16:32:44;100258.63;;;18.11;62.64
19594;BME280;9944;48.240;16.478;2023-05-19T16:36:47;100254.28;;;18.07;63.33
19594;BME280;9944;48.240;16.478;2023-05-19T16:40:50;100263.34;;;18.02;63.02
19594;BME280;9944;48.240;16.478;2023-05-19T16:44:54;100264.50;;;17.91;62.98
19594;BME280;9944;48.240;16.478;2023-05-19T16:48:57;100254.06;;;17.82;62.80
19594;BME280;9944;48.240;16.478;2023-05-19T16:53:00;100252.47;;;17.75;63.09
19594;BME280;9944;48.240;16.478;2023-05-19T16:57:04;100247.34;;;17.66;63.15
19594;BME280;9944;48.240;16.478;2023-05-19T17:01:08;100249.25;;;17.61;63.25
19594;BME280;9944;48.240;16.478;2023-05-19T17:05:12;100259.09;;;17.59;63.50
19594;BME280;9944;48.240;16.478;2023-05-19T17:09:16;100253.81;;;17.55;63.80
19594;BME280;9944;48.240;16.478;2023-05-19T17:13:25;100260.06;;;17.54;64.06
19594;BME280;9944;48.240;16.478;2023-05-19T17:17:31;100255.66;;;17.53;64.25
19594;BME280;9944;48.240;16.478;2023-05-19T17:21:34;100258.41;;;17.50;64.31
19594;BME280;9944;48.240;16.478;2023-05-19T17:25:37;100255.72;;;17.50;64.61
19594;BME280;9944;48.240;16.478;2023-05-19T17:29:40;100261.97;;;17.49;64.91
19594;BME280;9944;48.240;16.478;2023-05-19T17:33:44;100268.31;;;17.45;65.09
19594;BME280;9944;48.240;16.478;2023-05-19T17:37:49;100263.03;;;17.42;65.44
19594;BME280;9944;48.240;16.478;2023-05-19T17:41:52;100263.97;;;17.41;65.70
19594;BME280;9944;48.240;16.478;2023-05-19T17:45:55;100255.22;;;17.36;65.82
19594;BME280;9944;48.240;16.478;2023-05-19T17:50:03;100253.50;;;17.32;66.07
19594;BME280;9944;48.240;16.478;2023-05-19T17:54:07;100260.69;;;17.30;66.04
19594;BME280;9944;48.240;16.478;2023-05-19T17:58:10;100255.50;;;17.24;66.23
19594;BME280;9944;48.240;16.478;2023-05-19T18:02:14;100265.47;;;17.15;66.47
19594;BME280;9944;48.240;16.478;2023-05-19T18:06:19;100262.06;;;17.09;66.61
19594;BME280;9944;48.240;16.478;2023-05-19T18:10:24;100269.28;;;17.04;66.69
19594;BME280;9944;48.240;16.478;2023-05-19T18:14:29;100261.44;;;16.97;66.88
19594;BME280;9944;48.240;16.478;2023-05-19T18:18:32;100268.72;;;16.91;66.95
19594;BME280;9944;48.240;16.478;2023-05-19T18:22:39;100260.84;;;16.83;67.26
19594;BME280;9944;48.240;16.478;2023-05-19T18:26:42;100263.69;;;16.75;67.40
19594;BME280;9944;48.240;16.478;2023-05-19T18:30:45;100260.28;;;16.67;67.77
19594;BME280;9944;48.240;16.478;2023-05-19T18:34:48;100261.31;;;16.61;67.92
19594;BME280;9944;48.240;16.478;2023-05-19T18:38:53;100257.88;;;16.55;68.28
19594;BME280;9944;48.240;16.478;2023-05-19T18:42:58;100258.00;;;16.49;68.45
19594;BME280;9944;48.240;16.478;2023-05-19T18:47:01;100264.31;;;16.44;68.53
19594;BME280;9944;48.240;16.478;2023-05-19T18:51:05;100260.88;;;16.39;68.81
19594;BME280;9944;48.240;16.478;2023-05-19T18:55:10;100267.22;;;16.32;68.96
19594;BME280;9944;48.240;16.478;2023-05-19T18:59:13;100264.66;;;16.26;69.23
19594;BME280;9944;48.240;16.478;2023-05-19T19:03:16;100270.09;;;16.23;69.37
19594;BME280;9944;48.240;16.478;2023-05-19T19:07:19;100269.28;;;16.19;69.51
19594;BME280;9944;48.240;16.478;2023-05-19T19:11:23;100270.19;;;16.17;69.71
19594;BME280;9944;48.240;16.478;2023-05-19T19:15:27;100286.22;;;16.14;69.88
19594;BME280;9944;48.240;16.478;2023-05-19T19:19:30;100275.66;;;16.11;69.82
19594;BME280;9944;48.240;16.478;2023-05-19T19:23:33;100281.94;;;16.05;69.85
19594;BME280;9944;48.240;16.478;2023-05-19T19:27:37;100284.75;;;15.97;70.03
19594;BME280;9944;48.240;16.478;2023-05-19T19:31:41;100290.19;;;15.91;70.14
19594;BME280;9944;48.240;16.478;2023-05-19T19:35:44;100283.22;;;15.81;70.38
19594;BME280;9944;48.240;16.478;2023-05-19T19:39:48;100290.50;;;15.73;70.54
19594;BME280;9944;48.240;16.478;2023-05-19T19:43:52;100294.16;;;15.65;70.62
19594;BME280;9944;48.240;16.478;2023-05-19T19:47:55;100299.53;;;15.62;70.74
19594;BME280;9944;48.240;16.478;2023-05-19T19:51:58;100300.44;;;15.60;71.05
19594;BME280;9944;48.240;16.478;2023-05-19T19:56:02;100302.25;;;15.59;71.20
19594;BME280;9944;48.240;16.478;2023-05-19T20:00:08;100309.38;;;15.57;71.37
19594;BME280;9944;48.240;16.478;2023-05-19T20:04:11;100312.94;;;15.55;71.37
19594;BME280;9944;48.240;16.478;2023-05-19T20:08:14;100311.22;;;15.54;71.85
19594;BME280;9944;48.240;16.478;2023-05-19T20:12:18;100316.53;;;15.54;71.79
19594;BME280;9944;48.240;16.478;2023-05-19T20:16:22;100322.75;;;15.51;71.85
19594;BME280;9944;48.240;16.478;2023-05-19T20:20:25;100308.63;;;15.47;72.18
19594;BME280;9944;48.240;16.478;2023-05-19T20:24:28;100318.47;;;15.42;72.08
19594;BME280;9944;48.240;16.478;2023-05-19T20:28:31;100308.81;;;15.37;72.56
19594;BME280;9944;48.240;16.478;2023-05-19T20:32:37;100308.84;;;15.32;72.84
19594;BME280;9944;48.240;16.478;2023-05-19T20:36:40;100308.94;;;15.27;72.92
19594;BME280;9944;48.240;16.478;2023-05-19T20:40:44;100302.03;;;15.16;72.82
19594;BME280;9944;48.240;16.478;2023-05-19T20:44:49;100302.19;;;15.05;72.98
19594;BME280;9944;48.240;16.478;2023-05-19T20:48:54;100299.63;;;14.97;73.26
19594;BME280;9944;48.240;16.478;2023-05-19T20:52:57;100299.72;;;14.91;73.59
19594;BME280;9944;48.240;16.478;2023-05-19T20:57:00;100295.34;;;14.85;74.00
19594;BME280;9944;48.240;16.478;2023-05-19T21:01:07;100306.88;;;14.81;74.24
19594;BME280;9944;48.240;16.478;2023-05-19T21:05:11;100297.22;;;14.77;74.43
19594;BME280;9944;48.240;16.478;2023-05-19T21:09:14;100291.06;;;14.72;74.71
19594;BME280;9944;48.240;16.478;2023-05-19T21:13:17;100302.63;;;14.68;74.78
19594;BME280;9944;48.240;16.478;2023-05-19T21:17:21;100308.88;;;14.64;74.79
19594;BME280;9944;48.240;16.478;2023-05-19T21:21:25;100307.22;;;14.55;75.02
19594;BME280;9944;48.240;16.478;2023-05-19T21:25:28;100301.06;;;14.51;75.16
19594;BME280;9944;48.240;16.478;2023-05-19T21:29:31;100309.94;;;14.47;75.23
19594;BME280;9944;48.240;16.478;2023-05-19T21:33:35;100315.34;;;14.41;75.13